sensor_id;sensor_type;location;lat;lon;timestamp;P1;durP1;ratioP1;P2;durP2;ratioP2
73823;SDS011;62154;54.914;73.444;2023-04-03T00:01:34;6.90;;;3.15;;
73823;SDS011;62154;54.914;73.444;2023-04-03T00:04:05;9.55;;;3.00;;
73823;SDS011;62154;54.914;73.444;2023-04-03T00:06:32;9.00;;;2.35;;
73823;SDS011;62154;54.914;73.444;2023-04-03T00:09:09;5.55;;;2.53;;
73823;SDS011;62154;54.914;73.444;2023-04-03T00:11:36;9.32;;;2.40;;
73823;SDS011;62154;54.914;73.444;2023-04-03T00:14:13;10.43;;;2.63;;
73823;SDS011;62154;54.914;73.444;2023-04-03T00:16:40;8.27;;;2.05;;
73823;SDS011;62154;54.914;73.444;2023-04-03T00:19:08;6.57;;;2.38;;
73823;SDS011;62154;54.914;73.444;2023-04-03T00:21:45;7.57;;;2.40;;
73823;SDS011;62154;54.914;73.444;2023-04-03T00:24:17;5.97;;;2.42;;
73823;SDS011;62154;54.914;73.444;2023-04-03T00:26:49;6.93;;;2.42;;
73823;SDS011;62154;54.914;73.444;2023-04-03T00:29:16;5.78;;;2.20;;
73823;SDS011;62154;54.914;73.444;2023-04-03T00:31:53;5.80;;;2.45;;
73823;SDS011;62154;54.914;73.444;2023-04-03T00:34:20;9.88;;;2.40;;
73823;SDS011;62154;54.914;73.444;2023-04-03T00:36:48;3.65;;;1.85;;
73823;SDS011;62154;54.914;73.444;2023-04-03T00:39:19;5.20;;;2.40;;
73823;SDS011;62154;54.914;73.444;2023-04-03T00:41:47;7.55;;;2.60;;
73823;SDS011;62154;54.914;73.444;2023-04-03T00:44:22;6.47;;;2.30;;
73823;SDS011;62154;54.914;73.444;2023-04-03T00:46:49;9.45;;;2.85;;
73823;SDS011;62154;54.914;73.444;2023-04-03T00:49:16;9.32;;;2.47;;
73823;SDS011;62154;54.914;73.444;2023-04-03T00:51:43;7.13;;;2.78;;
73823;SDS011;62154;54.914;73.444;2023-04-03T00:54:11;8.97;;;2.03;;
73823;SDS011;62154;54.914;73.444;2023-04-03T00:56:38;6.65;;;2.70;;
73823;SDS011;62154;54.914;73.444;2023-04-03T00:59:12;8.40;;;2.22;;
73823;SDS011;62154;54.914;73.444;2023-04-03T01:01:51;13.77;;;2.70;;
73823;SDS011;62154;54.914;73.444;2023-04-03T01:04:31;13.17;;;3.00;;
73823;SDS011;62154;54.914;73.444;2023-04-03T01:07:03;7.20;;;2.80;;
73823;SDS011;62154;54.914;73.444;2023-04-03T01:09:32;10.60;;;2.40;;
73823;SDS011;62154;54.914;73.444;2023-04-03T01:15:08;8.82;;;2.35;;
73823;SDS011;62154;54.914;73.444;2023-04-03T01:17:43;7.22;;;2.05;;
73823;SDS011;62154;54.914;73.444;2023-04-03T01:25:33;6.43;;;2.50;;
73823;SDS011;62154;54.914;73.444;2023-04-03T01:28:01;6.03;;;2.10;;
73823;SDS011;62154;54.914;73.444;2023-04-03T01:30:30;9.98;;;1.90;;
73823;SDS011;62154;54.914;73.444;2023-04-03T01:33:08;9.07;;;1.90;;
73823;SDS011;62154;54.914;73.444;2023-04-03T01:35:35;4.80;;;2.17;;
73823;SDS011;62154;54.914;73.444;2023-04-03T01:38:02;12.65;;;2.25;;
73823;SDS011;62154;54.914;73.444;2023-04-03T01:40:30;9.32;;;2.08;;
73823;SDS011;62154;54.914;73.444;2023-04-03T01:42:57;8.80;;;2.75;;
73823;SDS011;62154;54.914;73.444;2023-04-03T01:45:24;19.40;;;7.90;;
73823;SDS011;62154;54.914;73.444;2023-04-03T01:47:51;13.63;;;3.85;;
73823;SDS011;62154;54.914;73.444;2023-04-03T01:50:19;13.82;;;3.40;;
73823;SDS011;62154;54.914;73.444;2023-04-03T01:52:56;8.40;;;1.83;;
73823;SDS011;62154;54.914;73.444;2023-04-03T01:55:24;5.88;;;1.70;;
73823;SDS011;62154;54.914;73.444;2023-04-03T01:57:51;8.10;;;2.20;;
73823;SDS011;62154;54.914;73.444;2023-04-03T02:00:19;7.85;;;2.35;;
73823;SDS011;62154;54.914;73.444;2023-04-03T02:02:56;7.90;;;1.73;;
73823;SDS011;62154;54.914;73.444;2023-04-03T02:05:33;12.20;;;2.60;;
73823;SDS011;62154;54.914;73.444;2023-04-03T02:08:00;5.22;;;2.05;;
73823;SDS011;62154;54.914;73.444;2023-04-03T02:10:27;6.18;;;1.92;;
73823;SDS011;62154;54.914;73.444;2023-04-03T02:12:54;3.65;;;1.38;;
73823;SDS011;62154;54.914;73.444;2023-04-03T02:15:22;8.45;;;1.80;;
73823;SDS011;62154;54.914;73.444;2023-04-03T02:17:49;10.43;;;4.10;;
73823;SDS011;62154;54.914;73.444;2023-04-03T02:20:16;6.10;;;1.90;;
73823;SDS011;62154;54.914;73.444;2023-04-03T02:22:44;7.05;;;2.10;;
73823;SDS011;62154;54.914;73.444;2023-04-03T02:25:11;5.90;;;2.00;;
73823;SDS011;62154;54.914;73.444;2023-04-03T02:27:39;10.75;;;1.92;;
73823;SDS011;62154;54.914;73.444;2023-04-03T02:30:06;11.77;;;2.60;;
73823;SDS011;62154;54.914;73.444;2023-04-03T02:32:36;9.32;;;2.60;;
73823;SDS011;62154;54.914;73.444;2023-04-03T02:35:03;9.48;;;2.30;;
73823;SDS011;62154;54.914;73.444;2023-04-03T02:37:31;9.35;;;2.30;;
73823;SDS011;62154;54.914;73.444;2023-04-03T02:39:59;6.82;;;2.53;;
73823;SDS011;62154;54.914;73.444;2023-04-03T02:42:30;10.75;;;2.20;;
73823;SDS011;62154;54.914;73.444;2023-04-03T02:45:03;5.78;;;2.07;;
73823;SDS011;62154;54.914;73.444;2023-04-03T02:47:30;12.20;;;2.20;;
73823;SDS011;62154;54.914;73.444;2023-04-03T02:49:57;9.07;;;2.50;;
73823;SDS011;62154;54.914;73.444;2023-04-03T02:52:35;9.63;;;3.15;;
73823;SDS011;62154;54.914;73.444;2023-04-03T02:55:14;13.95;;;3.41;;
73823;SDS011;62154;54.914;73.444;2023-04-03T02:57:44;7.53;;;2.95;;
73823;SDS011;62154;54.914;73.444;2023-04-03T03:00:22;12.38;;;3.35;;
73823;SDS011;62154;54.914;73.444;2023-04-03T03:02:49;12.73;;;3.75;;
73823;SDS011;62154;54.914;73.444;2023-04-03T03:05:16;12.02;;;2.10;;
73823;SDS011;62154;54.914;73.444;2023-04-03T03:07:44;8.10;;;2.85;;
73823;SDS011;62154;54.914;73.444;2023-04-03T03:10:11;9.07;;;2.63;;
73823;SDS011;62154;54.914;73.444;2023-04-03T03:12:38;15.45;;;3.00;;
73823;SDS011;62154;54.914;73.444;2023-04-03T03:15:08;14.43;;;3.15;;
73823;SDS011;62154;54.914;73.444;2023-04-03T03:17:35;11.90;;;2.35;;
73823;SDS011;62154;54.914;73.444;2023-04-03T03:20:03;19.75;;;3.08;;
73823;SDS011;62154;54.914;73.444;2023-04-03T03:22:30;7.63;;;2.72;;
73823;SDS011;62154;54.914;73.444;2023-04-03T03:24:58;16.88;;;2.88;;
73823;SDS011;62154;54.914;73.444;2023-04-03T03:27:26;11.88;;;2.20;;
73823;SDS011;62154;54.914;73.444;2023-04-03T03:29:53;8.15;;;2.80;;
73823;SDS011;62154;54.914;73.444;2023-04-03T03:32:31;7.60;;;3.55;;
73823;SDS011;62154;54.914;73.444;2023-04-03T03:34:58;13.57;;;5.20;;
73823;SDS011;62154;54.914;73.444;2023-04-03T03:37:26;6.07;;;2.53;;
73823;SDS011;62154;54.914;73.444;2023-04-03T03:39:53;11.05;;;2.88;;
73823;SDS011;62154;54.914;73.444;2023-04-03T03:42:20;10.10;;;2.45;;
73823;SDS011;62154;54.914;73.444;2023-04-03T03:44:49;6.15;;;2.03;;
73823;SDS011;62154;54.914;73.444;2023-04-03T03:47:19;7.88;;;2.10;;
73823;SDS011;62154;54.914;73.444;2023-04-03T03:49:47;11.88;;;2.40;;
73823;SDS011;62154;54.914;73.444;2023-04-03T03:52:15;9.20;;;2.53;;
73823;SDS011;62154;54.914;73.444;2023-04-03T03:54:43;8.05;;;2.20;;
73823;SDS011;62154;54.914;73.444;2023-04-03T03:57:11;5.78;;;2.25;;
73823;SDS011;62154;54.914;73.444;2023-04-03T03:59:38;8.25;;;2.50;;
73823;SDS011;62154;54.914;73.444;2023-04-03T04:02:07;8.07;;;2.78;;
73823;SDS011;62154;54.914;73.444;2023-04-03T04:04:35;6.55;;;2.47;;
73823;SDS011;62154;54.914;73.444;2023-04-03T04:07:03;14.35;;;3.15;;
73823;SDS011;62154;54.914;73.444;2023-04-03T04:09:32;15.35;;;3.28;;
73823;SDS011;62154;54.914;73.444;2023-04-03T04:12:05;12.88;;;2.92;;
73823;SDS011;62154;54.914;73.444;2023-04-03T04:14:33;7.72;;;2.28;;
73823;SDS011;62154;54.914;73.444;2023-04-03T04:17:01;3.22;;;1.85;;
73823;SDS011;62154;54.914;73.444;2023-04-03T04:19:29;15.70;;;2.33;;
73823;SDS011;62154;54.914;73.444;2023-04-03T04:21:56;13.18;;;2.33;;
73823;SDS011;62154;54.914;73.444;2023-04-03T04:24:24;19.73;;;2.88;;
73823;SDS011;62154;54.914;73.444;2023-04-03T04:26:53;7.82;;;2.15;;
73823;SDS011;62154;54.914;73.444;2023-04-03T04:29:22;13.32;;;2.30;;
73823;SDS011;62154;54.914;73.444;2023-04-03T04:31:51;10.15;;;1.98;;
73823;SDS011;62154;54.914;73.444;2023-04-03T04:34:18;10.30;;;2.30;;
73823;SDS011;62154;54.914;73.444;2023-04-03T04:36:47;6.13;;;2.25;;
73823;SDS011;62154;54.914;73.444;2023-04-03T04:39:19;13.80;;;2.85;;
73823;SDS011;62154;54.914;73.444;2023-04-03T04:41:47;9.75;;;2.15;;
73823;SDS011;62154;54.914;73.444;2023-04-03T04:44:14;17.90;;;2.50;;
73823;SDS011;62154;54.914;73.444;2023-04-03T04:46:42;17.63;;;3.03;;
73823;SDS011;62154;54.914;73.444;2023-04-03T04:49:10;18.63;;;2.60;;
73823;SDS011;62154;54.914;73.444;2023-04-03T04:51:39;11.20;;;1.88;;
73823;SDS011;62154;54.914;73.444;2023-04-03T04:54:06;8.95;;;2.25;;
73823;SDS011;62154;54.914;73.444;2023-04-03T04:56:34;11.25;;;2.33;;
73823;SDS011;62154;54.914;73.444;2023-04-03T04:59:01;6.68;;;2.20;;
73823;SDS011;62154;54.914;73.444;2023-04-03T05:01:29;8.65;;;1.90;;
73823;SDS011;62154;54.914;73.444;2023-04-03T05:04:05;9.27;;;2.58;;
73823;SDS011;62154;54.914;73.444;2023-04-03T05:06:37;23.83;;;3.95;;
73823;SDS011;62154;54.914;73.444;2023-04-03T05:09:09;9.73;;;2.65;;
73823;SDS011;62154;54.914;73.444;2023-04-03T05:11:36;15.90;;;3.33;;
73823;SDS011;62154;54.914;73.444;2023-04-03T05:14:17;11.57;;;2.75;;
73823;SDS011;62154;54.914;73.444;2023-04-03T05:16:45;13.65;;;3.17;;
73823;SDS011;62154;54.914;73.444;2023-04-03T05:19:13;5.82;;;2.15;;
73823;SDS011;62154;54.914;73.444;2023-04-03T05:21:41;15.27;;;3.35;;
73823;SDS011;62154;54.914;73.444;2023-04-03T05:24:13;9.25;;;2.30;;
73823;SDS011;62154;54.914;73.444;2023-04-03T05:26:53;6.43;;;2.00;;
73823;SDS011;62154;54.914;73.444;2023-04-03T05:29:21;10.80;;;3.60;;
73823;SDS011;62154;54.914;73.444;2023-04-03T05:31:58;14.98;;;4.20;;
73823;SDS011;62154;54.914;73.444;2023-04-03T05:34:25;11.68;;;3.13;;
73823;SDS011;62154;54.914;73.444;2023-04-03T05:36:55;15.93;;;3.10;;
73823;SDS011;62154;54.914;73.444;2023-04-03T05:39:22;22.85;;;4.32;;
73823;SDS011;62154;54.914;73.444;2023-04-03T05:41:51;11.70;;;3.45;;
73823;SDS011;62154;54.914;73.444;2023-04-03T05:44:18;15.27;;;3.08;;
73823;SDS011;62154;54.914;73.444;2023-04-03T05:46:48;10.73;;;2.83;;
73823;SDS011;62154;54.914;73.444;2023-04-03T05:49:15;20.85;;;3.35;;
73823;SDS011;62154;54.914;73.444;2023-04-03T05:51:42;10.70;;;3.22;;
73823;SDS011;62154;54.914;73.444;2023-04-03T05:54:29;6.03;;;2.33;;
73823;SDS011;62154;54.914;73.444;2023-04-03T05:57:07;11.73;;;2.50;;
73823;SDS011;62154;54.914;73.444;2023-04-03T05:59:37;11.50;;;2.53;;
73823;SDS011;62154;54.914;73.444;2023-04-03T06:02:04;7.50;;;2.58;;
73823;SDS011;62154;54.914;73.444;2023-04-03T06:04:31;9.32;;;3.00;;
73823;SDS011;62154;54.914;73.444;2023-04-03T06:06:58;9.48;;;2.63;;
73823;SDS011;62154;54.914;73.444;2023-04-03T06:09:27;13.75;;;2.65;;
73823;SDS011;62154;54.914;73.444;2023-04-03T06:11:55;10.40;;;2.58;;
73823;SDS011;62154;54.914;73.444;2023-04-03T06:14:34;7.65;;;2.35;;
73823;SDS011;62154;54.914;73.444;2023-04-03T06:17:02;8.47;;;2.30;;
73823;SDS011;62154;54.914;73.444;2023-04-03T06:19:29;8.43;;;2.13;;
73823;SDS011;62154;54.914;73.444;2023-04-03T06:21:57;13.43;;;2.28;;
73823;SDS011;62154;54.914;73.444;2023-04-03T06:24:25;9.88;;;2.47;;
73823;SDS011;62154;54.914;73.444;2023-04-03T06:27:03;8.36;;;2.06;;
73823;SDS011;62154;54.914;73.444;2023-04-03T06:29:40;12.75;;;2.42;;
73823;SDS011;62154;54.914;73.444;2023-04-03T06:32:07;8.63;;;2.20;;
73823;SDS011;62154;54.914;73.444;2023-04-03T06:34:44;9.30;;;2.10;;
73823;SDS011;62154;54.914;73.444;2023-04-03T06:37:19;6.17;;;2.50;;
73823;SDS011;62154;54.914;73.444;2023-04-03T06:39:46;6.40;;;2.15;;
73823;SDS011;62154;54.914;73.444;2023-04-03T06:42:15;11.25;;;2.90;;
73823;SDS011;62154;54.914;73.444;2023-04-03T06:44:53;7.15;;;2.70;;
73823;SDS011;62154;54.914;73.444;2023-04-03T06:47:20;13.17;;;3.10;;
73823;SDS011;62154;54.914;73.444;2023-04-03T06:49:47;8.00;;;2.83;;
73823;SDS011;62154;54.914;73.444;2023-04-03T06:52:14;8.88;;;3.25;;
73823;SDS011;62154;54.914;73.444;2023-04-03T06:54:43;13.48;;;3.53;;
73823;SDS011;62154;54.914;73.444;2023-04-03T06:57:10;12.40;;;3.83;;
73823;SDS011;62154;54.914;73.444;2023-04-03T06:59:37;16.58;;;2.75;;
73823;SDS011;62154;54.914;73.444;2023-04-03T07:02:09;14.30;;;4.53;;
73823;SDS011;62154;54.914;73.444;2023-04-03T07:04:37;13.13;;;2.70;;
73823;SDS011;62154;54.914;73.444;2023-04-03T07:07:04;19.70;;;2.63;;
73823;SDS011;62154;54.914;73.444;2023-04-03T07:09:34;14.10;;;3.00;;
73823;SDS011;62154;54.914;73.444;2023-04-03T07:12:02;13.98;;;2.67;;
73823;SDS011;62154;54.914;73.444;2023-04-03T07:14:33;11.52;;;2.40;;
73823;SDS011;62154;54.914;73.444;2023-04-03T07:17:01;18.15;;;2.50;;
73823;SDS011;62154;54.914;73.444;2023-04-03T07:19:28;14.68;;;2.53;;
73823;SDS011;62154;54.914;73.444;2023-04-03T07:21:55;8.55;;;2.25;;
73823;SDS011;62154;54.914;73.444;2023-04-03T07:24:29;9.07;;;2.40;;
73823;SDS011;62154;54.914;73.444;2023-04-03T07:27:01;8.25;;;2.10;;
73823;SDS011;62154;54.914;73.444;2023-04-03T07:29:29;8.38;;;2.40;;
73823;SDS011;62154;54.914;73.444;2023-04-03T07:31:59;10.35;;;2.90;;
73823;SDS011;62154;54.914;73.444;2023-04-03T07:34:31;10.18;;;2.25;;
73823;SDS011;62154;54.914;73.444;2023-04-03T07:37:09;8.75;;;1.90;;
73823;SDS011;62154;54.914;73.444;2023-04-03T07:39:36;10.05;;;2.50;;
73823;SDS011;62154;54.914;73.444;2023-04-03T07:42:05;4.40;;;2.05;;
73823;SDS011;62154;54.914;73.444;2023-04-03T07:44:32;9.52;;;2.03;;
73823;SDS011;62154;54.914;73.444;2023-04-03T07:47:04;13.70;;;2.30;;
73823;SDS011;62154;54.914;73.444;2023-04-03T07:49:31;9.48;;;2.65;;
73823;SDS011;62154;54.914;73.444;2023-04-03T07:51:59;17.95;;;2.20;;
73823;SDS011;62154;54.914;73.444;2023-04-03T07:54:27;21.45;;;3.20;;
73823;SDS011;62154;54.914;73.444;2023-04-03T07:56:55;11.18;;;2.63;;
73823;SDS011;62154;54.914;73.444;2023-04-03T07:59:24;11.43;;;2.50;;
73823;SDS011;62154;54.914;73.444;2023-04-03T08:01:51;8.82;;;2.45;;
73823;SDS011;62154;54.914;73.444;2023-04-03T08:04:24;14.52;;;2.10;;
73823;SDS011;62154;54.914;73.444;2023-04-03T08:06:53;7.95;;;2.33;;
73823;SDS011;62154;54.914;73.444;2023-04-03T08:09:20;8.13;;;2.60;;
73823;SDS011;62154;54.914;73.444;2023-04-03T08:11:47;9.05;;;2.42;;
73823;SDS011;62154;54.914;73.444;2023-04-03T08:14:16;6.72;;;2.47;;
73823;SDS011;62154;54.914;73.444;2023-04-03T08:16:47;6.50;;;2.30;;
73823;SDS011;62154;54.914;73.444;2023-04-03T08:19:18;4.90;;;2.28;;
73823;SDS011;62154;54.914;73.444;2023-04-03T08:21:46;6.78;;;3.55;;
73823;SDS011;62154;54.914;73.444;2023-04-03T08:24:13;4.47;;;2.55;;
73823;SDS011;62154;54.914;73.444;2023-04-03T08:26:40;7.25;;;2.70;;
73823;SDS011;62154;54.914;73.444;2023-04-03T08:29:07;11.85;;;2.80;;
73823;SDS011;62154;54.914;73.444;2023-04-03T08:31:34;8.10;;;2.90;;
73823;SDS011;62154;54.914;73.444;2023-04-03T08:34:03;7.30;;;3.28;;
73823;SDS011;62154;54.914;73.444;2023-04-03T08:36:33;10.25;;;4.97;;
73823;SDS011;62154;54.914;73.444;2023-04-03T08:39:00;18.77;;;9.07;;
73823;SDS011;62154;54.914;73.444;2023-04-03T08:41:40;16.63;;;8.48;;
73823;SDS011;62154;54.914;73.444;2023-04-03T08:49:03;15.43;;;10.55;;
73823;SDS011;62154;54.914;73.444;2023-04-03T08:51:31;7.75;;;4.72;;
73823;SDS011;62154;54.914;73.444;2023-04-03T08:54:03;10.02;;;2.90;;
73823;SDS011;62154;54.914;73.444;2023-04-03T08:56:42;4.20;;;2.40;;
73823;SDS011;62154;54.914;73.444;2023-04-03T08:59:21;9.57;;;2.60;;
73823;SDS011;62154;54.914;73.444;2023-04-03T09:01:51;12.20;;;3.42;;
73823;SDS011;62154;54.914;73.444;2023-04-03T09:04:18;7.95;;;2.17;;
73823;SDS011;62154;54.914;73.444;2023-04-03T09:06:57;6.03;;;2.65;;
73823;SDS011;62154;54.914;73.444;2023-04-03T09:09:31;20.27;;;8.82;;
73823;SDS011;62154;54.914;73.444;2023-04-03T09:14:33;14.27;;;5.88;;
73823;SDS011;62154;54.914;73.444;2023-04-03T09:22:25;13.00;;;3.47;;
73823;SDS011;62154;54.914;73.444;2023-04-03T09:27:32;7.68;;;4.32;;
73823;SDS011;62154;54.914;73.444;2023-04-03T09:30:13;9.90;;;4.90;;
73823;SDS011;62154;54.914;73.444;2023-04-03T09:32:44;15.70;;;6.93;;
73823;SDS011;62154;54.914;73.444;2023-04-03T09:35:28;16.05;;;6.65;;
73823;SDS011;62154;54.914;73.444;2023-04-03T09:38:01;35.10;;;14.63;;
73823;SDS011;62154;54.914;73.444;2023-04-03T09:40:29;25.30;;;10.30;;
73823;SDS011;62154;54.914;73.444;2023-04-03T09:43:18;22.13;;;9.02;;
73823;SDS011;62154;54.914;73.444;2023-04-03T09:45:47;16.45;;;6.55;;
73823;SDS011;62154;54.914;73.444;2023-04-03T09:56:03;18.58;;;7.22;;
73823;SDS011;62154;54.914;73.444;2023-04-03T09:58:37;43.72;;;19.30;;
73823;SDS011;62154;54.914;73.444;2023-04-03T10:03:34;18.20;;;7.43;;
73823;SDS011;62154;54.914;73.444;2023-04-03T10:06:03;17.65;;;4.78;;
73823;SDS011;62154;54.914;73.444;2023-04-03T10:08:31;19.42;;;8.35;;
73823;SDS011;62154;54.914;73.444;2023-04-03T10:11:17;15.27;;;4.90;;
73823;SDS011;62154;54.914;73.444;2023-04-03T10:16:20;13.88;;;3.28;;
73823;SDS011;62154;54.914;73.444;2023-04-03T10:21:29;33.13;;;14.23;;
73823;SDS011;62154;54.914;73.444;2023-04-03T10:26:37;21.13;;;8.27;;
73823;SDS011;62154;54.914;73.444;2023-04-03T10:31:55;17.13;;;7.20;;
73823;SDS011;62154;54.914;73.444;2023-04-03T10:35:00;10.05;;;4.43;;
73823;SDS011;62154;54.914;73.444;2023-04-03T10:37:30;8.52;;;3.55;;
73823;SDS011;62154;54.914;73.444;2023-04-03T10:40:40;9.18;;;3.55;;
73823;SDS011;62154;54.914;73.444;2023-04-03T10:43:02;17.40;;;4.82;;
73823;SDS011;62154;54.914;73.444;2023-04-03T10:45:53;10.88;;;3.88;;
73823;SDS011;62154;54.914;73.444;2023-04-03T10:51:21;14.80;;;2.40;;
73823;SDS011;62154;54.914;73.444;2023-04-03T10:54:12;21.83;;;6.25;;
73823;SDS011;62154;54.914;73.444;2023-04-03T10:57:01;65.13;;;25.85;;
73823;SDS011;62154;54.914;73.444;2023-04-03T11:02:06;13.48;;;3.80;;
73823;SDS011;62154;54.914;73.444;2023-04-03T11:04:35;38.33;;;11.20;;
73823;SDS011;62154;54.914;73.444;2023-04-03T11:07:18;14.40;;;4.15;;
73823;SDS011;62154;54.914;73.444;2023-04-03T11:10:00;32.47;;;8.20;;
73823;SDS011;62154;54.914;73.444;2023-04-03T11:12:36;18.33;;;6.88;;
73823;SDS011;62154;54.914;73.444;2023-04-03T11:15:05;26.00;;;3.47;;
73823;SDS011;62154;54.914;73.444;2023-04-03T11:17:38;15.48;;;2.83;;
73823;SDS011;62154;54.914;73.444;2023-04-03T11:22:51;13.57;;;2.70;;
73823;SDS011;62154;54.914;73.444;2023-04-03T11:25:25;14.48;;;5.25;;
73823;SDS011;62154;54.914;73.444;2023-04-03T11:27:59;17.27;;;6.78;;
73823;SDS011;62154;54.914;73.444;2023-04-03T11:30:30;9.93;;;2.38;;
73823;SDS011;62154;54.914;73.444;2023-04-03T11:33:09;10.60;;;4.55;;
73823;SDS011;62154;54.914;73.444;2023-04-03T11:35:50;31.83;;;11.75;;
73823;SDS011;62154;54.914;73.444;2023-04-03T11:38:25;17.27;;;4.65;;
73823;SDS011;62154;54.914;73.444;2023-04-03T11:40:54;13.35;;;6.38;;
73823;SDS011;62154;54.914;73.444;2023-04-03T11:43:27;37.17;;;15.65;;
73823;SDS011;62154;54.914;73.444;2023-04-03T11:45:59;12.35;;;2.90;;
73823;SDS011;62154;54.914;73.444;2023-04-03T11:50:56;58.55;;;23.95;;
73823;SDS011;62154;54.914;73.444;2023-04-03T11:53:30;12.15;;;2.67;;
73823;SDS011;62154;54.914;73.444;2023-04-03T11:55:59;9.05;;;2.28;;
73823;SDS011;62154;54.914;73.444;2023-04-03T11:58:39;18.67;;;2.33;;
73823;SDS011;62154;54.914;73.444;2023-04-03T12:01:10;18.40;;;3.08;;
73823;SDS011;62154;54.914;73.444;2023-04-03T12:08:46;125.40;;;38.40;;
73823;SDS011;62154;54.914;73.444;2023-04-03T12:11:14;291.48;;;107.10;;
73823;SDS011;62154;54.914;73.444;2023-04-03T12:16:42;111.88;;;48.83;;
73823;SDS011;62154;54.914;73.444;2023-04-03T12:24:32;121.40;;;53.65;;
73823;SDS011;62154;54.914;73.444;2023-04-03T12:29:37;69.90;;;30.05;;
73823;SDS011;62154;54.914;73.444;2023-04-03T12:37:42;35.30;;;10.18;;
73823;SDS011;62154;54.914;73.444;2023-04-03T12:42:48;27.83;;;5.85;;
73823;SDS011;62154;54.914;73.444;2023-04-03T12:45:20;27.85;;;6.05;;
73823;SDS011;62154;54.914;73.444;2023-04-03T12:47:54;12.73;;;3.38;;
73823;SDS011;62154;54.914;73.444;2023-04-03T12:50:28;28.63;;;5.38;;
73823;SDS011;62154;54.914;73.444;2023-04-03T12:55:33;19.30;;;4.05;;
73823;SDS011;62154;54.914;73.444;2023-04-03T12:58:13;19.45;;;4.22;;
73823;SDS011;62154;54.914;73.444;2023-04-03T13:00:41;18.70;;;3.53;;
73823;SDS011;62154;54.914;73.444;2023-04-03T13:03:21;29.08;;;5.20;;
73823;SDS011;62154;54.914;73.444;2023-04-03T13:05:49;32.42;;;7.65;;
73823;SDS011;62154;54.914;73.444;2023-04-03T13:08:16;27.92;;;6.53;;
73823;SDS011;62154;54.914;73.444;2023-04-03T13:10:56;51.30;;;20.77;;
73823;SDS011;62154;54.914;73.444;2023-04-03T13:13:25;81.85;;;34.53;;
73823;SDS011;62154;54.914;73.444;2023-04-03T13:16:10;45.38;;;15.38;;
73823;SDS011;62154;54.914;73.444;2023-04-03T13:18:38;44.05;;;16.10;;
73823;SDS011;62154;54.914;73.444;2023-04-03T13:21:13;28.13;;;10.93;;
73823;SDS011;62154;54.914;73.444;2023-04-03T13:23:56;17.50;;;7.55;;
73823;SDS011;62154;54.914;73.444;2023-04-03T13:26:25;20.27;;;8.23;;
73823;SDS011;62154;54.914;73.444;2023-04-03T13:28:55;16.48;;;8.52;;
73823;SDS011;62154;54.914;73.444;2023-04-03T13:31:25;10.95;;;6.38;;
73823;SDS011;62154;54.914;73.444;2023-04-03T13:34:02;12.48;;;4.72;;
73823;SDS011;62154;54.914;73.444;2023-04-03T13:36:34;24.42;;;9.90;;
73823;SDS011;62154;54.914;73.444;2023-04-03T13:41:42;16.73;;;7.63;;
73823;SDS011;62154;54.914;73.444;2023-04-03T13:46:43;14.75;;;4.00;;
73823;SDS011;62154;54.914;73.444;2023-04-03T13:51:53;15.10;;;5.37;;
73823;SDS011;62154;54.914;73.444;2023-04-03T13:54:21;34.50;;;11.43;;
73823;SDS011;62154;54.914;73.444;2023-04-03T13:56:55;20.13;;;6.63;;
73823;SDS011;62154;54.914;73.444;2023-04-03T13:59:34;14.55;;;7.90;;
73823;SDS011;62154;54.914;73.444;2023-04-03T14:07:07;13.05;;;4.38;;
73823;SDS011;62154;54.914;73.444;2023-04-03T14:09:34;17.73;;;5.65;;
73823;SDS011;62154;54.914;73.444;2023-04-03T14:12:14;29.47;;;10.63;;
73823;SDS011;62154;54.914;73.444;2023-04-03T14:14:41;16.85;;;7.20;;
73823;SDS011;62154;54.914;73.444;2023-04-03T14:17:17;25.38;;;7.35;;
73823;SDS011;62154;54.914;73.444;2023-04-03T14:19:44;18.55;;;6.15;;
73823;SDS011;62154;54.914;73.444;2023-04-03T14:22:25;16.73;;;5.35;;
73823;SDS011;62154;54.914;73.444;2023-04-03T14:24:53;13.70;;;5.22;;
73823;SDS011;62154;54.914;73.444;2023-04-03T14:27:27;17.45;;;5.63;;
73823;SDS011;62154;54.914;73.444;2023-04-03T14:29:59;13.63;;;4.93;;
73823;SDS011;62154;54.914;73.444;2023-04-03T14:32:27;18.35;;;5.72;;
73823;SDS011;62154;54.914;73.444;2023-04-03T14:34:57;22.13;;;6.80;;
73823;SDS011;62154;54.914;73.444;2023-04-03T14:37:28;16.35;;;5.47;;
73823;SDS011;62154;54.914;73.444;2023-04-03T14:39:56;16.23;;;5.05;;
73823;SDS011;62154;54.914;73.444;2023-04-03T14:42:25;15.40;;;5.20;;
73823;SDS011;62154;54.914;73.444;2023-04-03T14:44:53;13.20;;;4.88;;
73823;SDS011;62154;54.914;73.444;2023-04-03T14:47:21;16.13;;;4.97;;
73823;SDS011;62154;54.914;73.444;2023-04-03T14:49:49;14.85;;;5.72;;
73823;SDS011;62154;54.914;73.444;2023-04-03T14:52:28;13.10;;;4.35;;
73823;SDS011;62154;54.914;73.444;2023-04-03T14:54:57;12.30;;;4.57;;
73823;SDS011;62154;54.914;73.444;2023-04-03T14:57:24;16.45;;;4.32;;
73823;SDS011;62154;54.914;73.444;2023-04-03T14:59:52;10.85;;;4.13;;
73823;SDS011;62154;54.914;73.444;2023-04-03T15:02:53;11.35;;;4.03;;
73823;SDS011;62154;54.914;73.444;2023-04-03T15:05:14;14.13;;;4.75;;
73823;SDS011;62154;54.914;73.444;2023-04-03T15:07:54;17.40;;;5.32;;
73823;SDS011;62154;54.914;73.444;2023-04-03T15:10:26;17.13;;;5.82;;
73823;SDS011;62154;54.914;73.444;2023-04-03T15:13:03;15.27;;;5.95;;
73823;SDS011;62154;54.914;73.444;2023-04-03T15:15:41;12.55;;;5.68;;
73823;SDS011;62154;54.914;73.444;2023-04-03T15:18:10;15.98;;;6.53;;
73823;SDS011;62154;54.914;73.444;2023-04-03T15:20:41;19.08;;;6.88;;
73823;SDS011;62154;54.914;73.444;2023-04-03T15:23:12;11.70;;;5.03;;
73823;SDS011;62154;54.914;73.444;2023-04-03T15:25:44;11.75;;;4.97;;
73823;SDS011;62154;54.914;73.444;2023-04-03T15:31:02;33.58;;;12.75;;
73823;SDS011;62154;54.914;73.444;2023-04-03T15:33:30;16.75;;;8.13;;
73823;SDS011;62154;54.914;73.444;2023-04-03T15:35:57;17.85;;;8.80;;
73823;SDS011;62154;54.914;73.444;2023-04-03T15:38:26;24.42;;;9.95;;
73823;SDS011;62154;54.914;73.444;2023-04-03T15:40:53;11.82;;;5.38;;
73823;SDS011;62154;54.914;73.444;2023-04-03T15:43:21;16.95;;;5.38;;
73823;SDS011;62154;54.914;73.444;2023-04-03T15:45:50;14.80;;;5.15;;
73823;SDS011;62154;54.914;73.444;2023-04-03T15:48:18;20.17;;;7.35;;
73823;SDS011;62154;54.914;73.444;2023-04-03T15:50:45;18.42;;;6.53;;
73823;SDS011;62154;54.914;73.444;2023-04-03T15:53:12;16.92;;;9.48;;
73823;SDS011;62154;54.914;73.444;2023-04-03T15:55:42;15.38;;;6.00;;
73823;SDS011;62154;54.914;73.444;2023-04-03T15:58:09;10.35;;;4.70;;
73823;SDS011;62154;54.914;73.444;2023-04-03T16:00:37;15.13;;;6.30;;
73823;SDS011;62154;54.914;73.444;2023-04-03T16:03:25;15.38;;;6.15;;
73823;SDS011;62154;54.914;73.444;2023-04-03T16:05:53;16.20;;;7.40;;
73823;SDS011;62154;54.914;73.444;2023-04-03T16:08:26;11.77;;;6.10;;
73823;SDS011;62154;54.914;73.444;2023-04-03T16:10:53;13.27;;;6.90;;
73823;SDS011;62154;54.914;73.444;2023-04-03T16:13:21;13.88;;;6.78;;
73823;SDS011;62154;54.914;73.444;2023-04-03T16:15:51;30.58;;;17.90;;
73823;SDS011;62154;54.914;73.444;2023-04-03T16:18:19;33.35;;;16.88;;
73823;SDS011;62154;54.914;73.444;2023-04-03T16:20:46;16.35;;;8.20;;
73823;SDS011;62154;54.914;73.444;2023-04-03T16:23:19;28.75;;;12.32;;
73823;SDS011;62154;54.914;73.444;2023-04-03T16:25:46;28.80;;;11.35;;